Time;durP1;ratioP1;P1;durP2;ratioP2;P2;SDS_P1;SDS_P2;PMS_P1;PMS_P2;Temp;Humidity;BMP_temperature;BMP_pressure;BME280_temperature;BME280_humidity;BME280_pressure;Samples;Min_cycle;Max_cycle;Signal;HPM_P1;HPM_P2
2022/09/14 00:01:49;;;;;;;;;;;;;;;;;;5073816;28;19916;-61
2022/09/14 00:04:14;;;;;;;;;;;;;;;;;;5072628;28;20326;-61
2022/09/14 00:06:39;;;;;;;;;;;;;;;;;;5052625;28;19931;-61
2022/09/14 00:09:09;;;;;;;;;;;;;;;;;;5079836;28;19922;-63
2022/09/14 00:11:35;;;;;;;;;;;;;;;;;;5072031;28;19916;-61
2022/09/14 00:14:00;;;;;;;;;;;;;;;;;;5078117;28;20658;-62
2022/09/14 00:16:25;;;;;;;;;;;;;;;;;;5073823;28;20416;-63
2022/09/14 00:18:50;;;;;;;;;;;;;;;;;;5071680;28;20019;-61
2022/09/14 00:21:16;;;;;;;;;;;;;;;;;;5081168;28;19994;-61
2022/09/14 00:23:41;;;;;;;;;;;;;;;;;;5073609;28;19947;-61
2022/09/14 00:26:06;;;;;;;;;;;;;;;;;;5080583;28;20314;-61
2022/09/14 00:28:31;;;;;;;;;;;;;;;;;;5074367;28;20334;-61
2022/09/14 00:30:56;;;;;;;;;;;;;;;;;;5072361;28;20046;-60
2022/09/14 00:33:21;;;;;;;;;;;;;;;;;;5080654;28;19916;-61
2022/09/14 00:35:47;;;;;;;;;;;;;;;;;;5072287;28;19923;-60
2022/09/14 00:38:12;;;;;;;;;;;;;;;;;;5066649;28;20680;-61
2022/09/14 00:40:38;;;;;;;;;;;;;;;;;;5072781;28;19916;-62
2022/09/14 00:43:03;;;;;;;;;;;;;;;;;;5072632;28;19916;-61
2022/09/14 00:45:28;;;;;;;;;;;;;;;;;;5081754;28;19915;-61
2022/09/14 00:47:54;;;;;;;;;;;;;;;;;;5072248;28;20022;-62
2022/09/14 00:50:19;;;;;;;;;;;;;;;;;;5081092;28;20364;-62
2022/09/14 00:52:45;;;;;;;;;;;;;;;;;;5053844;28;19920;-61
2022/09/14 00:55:10;;;;;;;;;;;;;;;;;;5071704;28;19927;-61
2022/09/14 00:57:35;;;;;;;;;;;;;;;;;;5063312;28;19927;-62
2022/09/14 01:00:00;;;;;;;;;;;;;;;;;;5072197;28;19957;-61
2022/09/14 01:02:25;;;;;;;;;;;;;;;;;;5080148;28;19963;-61
2022/09/14 01:04:51;;;;;;;;;;;;;;;;;;5055223;28;19920;-61
2022/09/14 01:07:16;;;;;;;;;;;;;;;;;;5054252;28;19967;-61
2022/09/14 01:09:42;;;;;;;;;;;;;;;;;;5078868;28;20656;-61
2022/09/14 01:12:08;;;;;;;;;;;;;;;;;;5071406;28;19969;-61
2022/09/14 01:14:34;;;;;;;;;;;;;;;;;;5077373;28;19920;-61
2022/09/14 01:16:59;;;;;;;;;;;;;;;;;;5072029;28;19938;-61
2022/09/14 01:19:25;;;;;;;;;;;;;;;;;;5076898;28;20368;-60
2022/09/14 01:21:50;;;;;;;;;;;;;;;;;;5067874;28;20384;-61
2022/09/14 01:24:15;;;;;;;;;;;;;;;;;;5076600;28;20270;-60
2022/09/14 01:26:40;;;;;;;;;;;;;;;;;;5083474;28;19920;-61
2022/09/14 01:29:05;;;;;;;;;;;;;;;;;;5067766;28;19973;-61
2022/09/14 01:31:31;;;;;;;;;;;;;;;;;;5067348;28;19920;-61
2022/09/14 01:33:56;;;;;;;;;;;;;;;;;;5072387;28;20389;-61
2022/09/14 01:36:21;;;;;;;;;;;;;;;;;;5066674;28;19924;-61
2022/09/14 01:38:46;;;;;;;;;;;;;;;;;;5073653;28;19916;-61
2022/09/14 01:41:11;;;;;;;;;;;;;;;;;;5067080;28;19916;-61
2022/09/14 01:43:36;;;;;;;;;;;;;;;;;;5066814;28;20933;-61
2022/09/14 01:46:02;;;;;;;;;;;;;;;;;;5074312;28;19916;-62
2022/09/14 01:48:27;;;;;;;;;;;;;;;;;;5064833;28;20421;-61
2022/09/14 01:50:52;;;;;;;;;;;;;;;;;;5074126;28;19988;-61
2022/09/14 01:53:17;;;;;;;;;;;;;;;;;;5063499;28;19971;-61
2022/09/14 01:55:42;;;;;;;;;;;;;;;;;;5051400;28;19922;-62
2022/09/14 01:58:08;;;;;;;;;;;;;;;;;;5073048;28;19922;-62
2022/09/14 02:00:33;;;;;;;;;;;;;;;;;;5068175;28;19920;-61
2022/09/14 02:02:59;;;;;;;;;;;;;;;;;;5081915;28;20346;-60
2022/09/14 02:05:24;;;;;;;;;;;;;;;;;;5072100;28;19923;-60
2022/09/14 02:07:49;;;;;;;;;;;;;;;;;;5068459;28;19928;-60
2022/09/14 02:10:14;;;;;;;;;;;;;;;;;;5069808;28;19920;-60
2022/09/14 02:12:39;;;;;;;;;;;;;;;;;;5063658;28;19921;-60
2022/09/14 02:15:05;;;;;;;;;;;;;;;;;;5056957;28;19947;-60
2022/09/14 02:17:30;;;;;;;;;;;;;;;;;;5061438;28;19995;-60
2022/09/14 02:19:55;;;;;;;;;;;;;;;;;;5066014;28;20395;-60
2022/09/14 02:22:20;;;;;;;;;;;;;;;;;;5070370;28;20354;-60
2022/09/14 02:24:45;;;;;;;;;;;;;;;;;;5066396;28;19916;-61
2022/09/14 02:27:11;;;;;;;;;;;;;;;;;;5070955;28;19920;-60
2022/09/14 02:29:36;;;;;;;;;;;;;;;;;;5063683;28;19924;-60
2022/09/14 02:32:01;;;;;;;;;;;;;;;;;;5067408;28;19927;-60
2022/09/14 02:34:26;;;;;;;;;;;;;;;;;;5073195;28;19920;-60
2022/09/14 02:36:51;;;;;;;;;;;;;;;;;;5068028;28;19981;-61
2022/09/14 02:39:17;;;;;;;;;;;;;;;;;;5071342;28;20296;-61
2022/09/14 02:41:42;;;;;;;;;;;;;;;;;;5066517;28;20034;-61
2022/09/14 02:44:07;;;;;;;;;;;;;;;;;;5066811;28;19927;-61
2022/09/14 02:46:32;;;;;;;;;;;;;;;;;;5072711;28;19920;-61
2022/09/14 02:48:58;;;;;;;;;;;;;;;;;;5067021;28;19970;-61
2022/09/14 02:51:23;;;;;;;;;;;;;;;;;;5068897;28;19920;-61
2022/09/14 02:53:48;;;;;;;;;;;;;;;;;;5066084;28;19922;-61
2022/09/14 02:56:13;;;;;;;;;;;;;;;;;;5063703;28;19927;-61
2022/09/14 02:58:39;;;;;;;;;;;;;;;;;;5071118;28;19916;-61
2022/09/14 03:01:04;;;;;;;;;;;;;;;;;;5067085;28;20288;-62
2022/09/14 03:03:29;;;;;;;;;;;;;;;;;;5072215;28;19920;-61
2022/09/14 03:05:54;;;;;;;;;;;;;;;;;;5065178;28;19920;-61
2022/09/14 03:08:20;;;;;;;;;;;;;;;;;;5065123;28;19966;-61
2022/09/14 03:10:45;;;;;;;;;;;;;;;;;;5072781;28;20247;-61
2022/09/14 03:13:10;;;;;;;;;;;;;;;;;;5064309;28;19927;-61
2022/09/14 03:15:35;;;;;;;;;;;;;;;;;;5070581;28;19988;-61
2022/09/14 03:18:01;;;;;;;;;;;;;;;;;;5067196;28;20324;-61
2022/09/14 03:20:26;;;;;;;;;;;;;;;;;;5063938;28;20006;-62
2022/09/14 03:22:51;;;;;;;;;;;;;;;;;;5073214;28;19959;-62
2022/09/14 03:25:18;;;;;;;;;;;;;;;;;;5064576;28;20320;-61
2022/09/14 03:27:43;;;;;;;;;;;;;;;;;;5054685;28;20023;-62
2022/09/14 03:30:08;;;;;;;;;;;;;;;;;;5065030;28;19942;-62
2022/09/14 03:32:33;;;;;;;;;;;;;;;;;;5067379;28;20322;-62
2022/09/14 03:34:59;;;;;;;;;;;;;;;;;;5056320;28;19996;-61
2022/09/14 03:37:24;;;;;;;;;;;;;;;;;;5064009;28;19920;-60
2022/09/14 03:39:49;;;;;;;;;;;;;;;;;;5069922;28;19942;-61
2022/09/14 03:42:14;;;;;;;;;;;;;;;;;;5064328;28;19959;-62
2022/09/14 03:44:39;;;;;;;;;;;;;;;;;;5064640;28;20038;-61
2022/09/14 03:47:05;;;;;;;;;;;;;;;;;;5073184;28;20408;-61
2022/09/14 03:49:30;;;;;;;;;;;;;;;;;;5064567;28;19981;-61
2022/09/14 03:51:55;;;;;;;;;;;;;;;;;;5073405;28;19942;-61
2022/09/14 03:54:20;;;;;;;;;;;;;;;;;;5062964;28;19920;-61
2022/09/14 03:56:45;;;;;;;;;;;;;;;;;;5066705;28;20312;-61
2022/09/14 03:59:10;;;;;;;;;;;;;;;;;;5069571;28;19923;-63
2022/09/14 04:01:36;;;;;;;;;;;;;;;;;;5064513;28;19958;-60
2022/09/14 04:04:02;;;;;;;;;;;;;;;;;;5072562;28;19923;-61
2022/09/14 04:06:27;;;;;;;;;;;;;;;;;;5060088;28;20280;-62
2022/09/14 04:08:54;;;;;;;;;;;;;;;;;;5065042;28;20619;-62
2022/09/14 04:11:19;;;;;;;;;;;;;;;;;;5070484;28;20010;-62
2022/09/14 04:13:44;;;;;;;;;;;;;;;;;;5065008;28;20372;-61
2022/09/14 04:16:09;;;;;;;;;;;;;;;;;;5070949;28;19967;-61
2022/09/14 04:18:35;;;;;;;;;;;;;;;;;;5048405;28;19927;-62
2022/09/14 04:21:00;;;;;;;;;;;;;;;;;;5064557;28;19969;-61
2022/09/14 04:23:25;;;;;;;;;;;;;;;;;;5067631;28;19916;-61
2022/09/14 04:25:50;;;;;;;;;;;;;;;;;;5065168;28;19920;-61
2022/09/14 04:28:15;;;;;;;;;;;;;;;;;;5069176;28;20398;-61
2022/09/14 04:30:41;;;;;;;;;;;;;;;;;;5064103;28;19946;-61
2022/09/14 04:33:06;;;;;;;;;;;;;;;;;;5062758;28;19965;-62
2022/09/14 04:35:31;;;;;;;;;;;;;;;;;;5055425;28;19920;-61
2022/09/14 04:37:57;;;;;;;;;;;;;;;;;;5065880;28;19916;-61
2022/09/14 04:40:22;;;;;;;;;;;;;;;;;;5071137;28;19977;-61
2022/09/14 04:42:47;;;;;;;;;;;;;;;;;;5064118;28;19985;-62
2022/09/14 04:45:12;;;;;;;;;;;;;;;;;;5062732;28;20791;-62
2022/09/14 04:47:38;;;;;;;;;;;;;;;;;;5053346;28;20424;-61
2022/09/14 04:50:03;;;;;;;;;;;;;;;;;;5063500;28;20321;-62
2022/09/14 04:52:28;;;;;;;;;;;;;;;;;;5070530;28;19997;-62
2022/09/14 04:54:53;;;;;;;;;;;;;;;;;;5068600;28;19920;-62
2022/09/14 04:57:18;;;;;;;;;;;;;;;;;;5066276;28;20305;-62
2022/09/14 04:59:43;;;;;;;;;;;;;;;;;;5075579;28;20034;-62
2022/09/14 05:02:09;;;;;;;;;;;;;;;;;;5074514;28;19939;-62
2022/09/14 05:04:34;;;;;;;;;;;;;;;;;;5082929;28;20365;-62
2022/09/14 05:06:59;;;;;;;;;;;;;;;;;;5072118;28;20012;-62
2022/09/14 05:09:24;;;;;;;;;;;;;;;;;;5074819;28;20335;-62
2022/09/14 05:11:50;;;;;;;;;;;;;;;;;;5082323;28;19932;-62
2022/09/14 05:14:15;;;;;;;;;;;;;;;;;;5074573;28;19924;-62
2022/09/14 05:16:41;;;;;;;;;;;;;;;;;;5083948;28;19959;-63
2022/09/14 05:19:06;;;;;;;;;;;;;;;;;;5071301;28;19920;-62
2022/09/14 05:21:31;;;;;;;;;;;;;;;;;;5075916;28;19923;-62
2022/09/14 05:23:56;;;;;;;;;;;;;;;;;;5081767;28;19916;-61
2022/09/14 05:26:21;;;;;;;;;;;;;;;;;;5075861;28;20416;-61
2022/09/14 05:28:47;;;;;;;;;;;;;;;;;;5082615;28;19928;-61
2022/09/14 05:31:12;;;;;;;;;;;;;;;;;;5076725;28;20540;-61
2022/09/14 05:33:38;;;;;;;;;;;;;;;;;;5076142;28;20325;-60
2022/09/14 05:36:03;;;;;;;;;;;;;;;;;;5080659;28;20284;-59
2022/09/14 05:38:28;;;;;;;;;;;;;;;;;;5084264;28;19961;-61
2022/09/14 05:40:54;;;;;;;;;;;;;;;;;;5066893;28;19955;-60
2022/09/14 05:43:21;;;;;;;;;;;;;;;;;;5077391;28;20340;-60
2022/09/14 05:45:46;;;;;;;;;;;;;;;;;;5082424;28;19923;-61
2022/09/14 05:48:11;;;;;;;;;;;;;;;;;;5081060;28;20179;-61
2022/09/14 05:50:37;;;;;;;;;;;;;;;;;;5080647;28;19920;-61
2022/09/14 05:53:02;;;;;;;;;;;;;;;;;;5072860;28;20007;-61
2022/09/14 05:55:27;;;;;;;;;;;;;;;;;;5086938;28;19916;-61
2022/09/14 05:57:52;;;;;;;;;;;;;;;;;;5086689;28;19912;-61
2022/09/14 06:00:17;;;;;;;;;;;;;;;;;;5086037;28;19916;-61
2022/09/14 06:02:42;;;;;;;;;;;;;;;;;;5068324;28;19965;-61
2022/09/14 06:05:08;;;;;;;;;;;;;;;;;;5086624;28;19916;-61
2022/09/14 06:07:33;;;;;;;;;;;;;;;;;;5086074;28;20287;-61
2022/09/14 06:09:58;;;;;;;;;;;;;;;;;;5086150;28;19920;-61
2022/09/14 06:12:25;;;;;;;;;;;;;;;;;;5086169;28;19919;-61
2022/09/14 06:14:51;;;;;;;;;;;;;;;;;;5086968;28;19924;-61
2022/09/14 06:17:16;;;;;;;;;;;;;;;;;;5086869;28;19981;-61
2022/09/14 06:19:41;;;;;;;;;;;;;;;;;;5086571;28;19912;-61
2022/09/14 06:22:06;;;;;;;;;;;;;;;;;;5085490;28;19923;-61
2022/09/14 06:24:32;;;;;;;;;;;;;;;;;;5086017;28;19916;-61
2022/09/14 06:26:57;;;;;;;;;;;;;;;;;;5086119;28;20294;-61
2022/09/14 06:29:22;;;;;;;;;;;;;;;;;;5085649;28;19920;-61
2022/09/14 06:31:47;;;;;;;;;;;;;;;;;;5085517;28;19923;-61
2022/09/14 06:34:12;;;;;;;;;;;;;;;;;;5084897;28;19916;-61
2022/09/14 06:36:38;;;;;;;;;;;;;;;;;;5085602;28;19971;-61
2022/09/14 06:39:03;;;;;;;;;;;;;;;;;;5085382;28;19916;-61
2022/09/14 06:41:31;;;;;;;;;;;;;;;;;;5085633;28;20010;-61
2022/09/14 06:43:56;;;;;;;;;;;;;;;;;;5067412;28;19970;-61
2022/09/14 06:46:22;;;;;;;;;;;;;;;;;;5086159;28;20032;-61
2022/09/14 06:48:47;;;;;;;;;;;;;;;;;;5085342;28;19923;-61
2022/09/14 06:51:12;;;;;;;;;;;;;;;;;;5085369;28;19924;-61
2022/09/14 06:53:38;;;;;;;;;;;;;;;;;;5085388;28;19916;-61
2022/09/14 06:56:03;;;;;;;;;;;;;;;;;;5085535;28;19924;-60
2022/09/14 06:58:29;;;;;;;;;;;;;;;;;;5083294;28;19916;-61
2022/09/14 07:00:54;;;;;;;;;;;;;;;;;;5084809;28;19916;-61
2022/09/14 07:03:19;;;;;;;;;;;;;;;;;;5068010;28;19993;-61
2022/09/14 07:05:44;;;;;;;;;;;;;;;;;;5084688;28;19916;-61
2022/09/14 07:08:09;;;;;;;;;;;;;;;;;;5084422;28;20003;-61
2022/09/14 07:10:34;;;;;;;;;;;;;;;;;;5085097;28;19920;-61
2022/09/14 07:13:00;;;;;;;;;;;;;;;;;;5084427;28;19938;-61
2022/09/14 07:15:25;;;;;;;;;;;;;;;;;;5084122;28;20448;-61
2022/09/14 07:17:50;;;;;;;;;;;;;;;;;;5083878;28;20181;-61
2022/09/14 07:20:15;;;;;;;;;;;;;;;;;;5083803;28;19920;-61
2022/09/14 07:22:40;;;;;;;;;;;;;;;;;;5084396;28;19959;-61
2022/09/14 07:25:06;;;;;;;;;;;;;;;;;;5068408;28;19946;-61
2022/09/14 07:27:31;;;;;;;;;;;;;;;;;;5085849;28;19923;-61
2022/09/14 07:29:56;;;;;;;;;;;;;;;;;;5084261;28;19946;-61
2022/09/14 07:32:21;;;;;;;;;;;;;;;;;;5084263;28;19920;-61
2022/09/14 07:34:46;;;;;;;;;;;;;;;;;;5084302;28;19921;-61
2022/09/14 07:37:11;;;;;;;;;;;;;;;;;;5084347;28;20401;-61
2022/09/14 07:39:37;;;;;;;;;;;;;;;;;;5084251;28;19916;-61
2022/09/14 07:42:02;;;;;;;;;;;;;;;;;;5084170;28;20359;-61
2022/09/14 07:44:27;;;;;;;;;;;;;;;;;;5084297;28;19916;-61
2022/09/14 07:46:52;;;;;;;;;;;;;;;;;;5084561;28;20294;-61
2022/09/14 07:49:18;;;;;;;;;;;;;;;;;;5084962;28;20449;-60
2022/09/14 07:51:43;;;;;;;;;;;;;;;;;;5084594;28;20044;-60
2022/09/14 07:54:08;;;;;;;;;;;;;;;;;;5084749;28;19922;-61
2022/09/14 07:56:33;;;;;;;;;;;;;;;;;;5084389;28;19916;-61
2022/09/14 07:58:59;;;;;;;;;;;;;;;;;;5084527;28;19947;-61
2022/09/14 08:01:24;;;;;;;;;;;;;;;;;;5066058;28;19916;-61
2022/09/14 08:03:50;;;;;;;;;;;;;;;;;;5084765;28;20428;-61
2022/09/14 08:06:15;;;;;;;;;;;;;;;;;;5084609;28;20335;-61
2022/09/14 08:08:40;;;;;;;;;;;;;;;;;;5084590;28;20446;-61
2022/09/14 08:11:06;;;;;;;;;;;;;;;;;;5084171;28;20035;-61
2022/09/14 08:13:31;;;;;;;;;;;;;;;;;;5083751;28;19924;-62
2022/09/14 08:16:00;;;;;;;;;;;;;;;;;;5066925;28;19915;-61
2022/09/14 08:18:26;;;;;;;;;;;;;;;;;;5084583;28;19919;-62
2022/09/14 08:20:51;;;;;;;;;;;;;;;;;;5084297;28;19920;-61
2022/09/14 08:23:16;;;;;;;;;;;;;;;;;;5084101;28;19923;-61
2022/09/14 08:25:41;;;;;;;;;;;;;;;;;;5084601;28;19963;-61
2022/09/14 08:28:06;;;;;;;;;;;;;;;;;;5086696;28;19970;-61
2022/09/14 08:30:32;;;;;;;;;;;;;;;;;;5087206;28;19990;-61
2022/09/14 08:32:57;;;;;;;;;;;;;;;;;;5087933;28;19967;-61
2022/09/14 08:35:22;;;;;;;;;;;;;;;;;;5086460;28;20028;-61
2022/09/14 08:37:47;;;;;;;;;;;;;;;;;;5087935;28;20344;-61
2022/09/14 08:40:12;;;;;;;;;;;;;;;;;;5087528;28;20000;-61
2022/09/14 08:42:37;;;;;;;;;;;;;;;;;;5087958;28;19916;-62
2022/09/14 08:45:03;;;;;;;;;;;;;;;;;;5088390;28;20002;-61
2022/09/14 08:47:28;;;;;;;;;;;;;;;;;;5089345;28;19920;-62
2022/09/14 08:49:53;;;;;;;;;;;;;;;;;;5088810;28;20006;-62
2022/09/14 08:52:18;;;;;;;;;;;;;;;;;;5088883;28;20268;-62
2022/09/14 08:54:43;;;;;;;;;;;;;;;;;;5087695;28;19984;-61
2022/09/14 08:57:09;;;;;;;;;;;;;;;;;;5086951;28;19975;-62
2022/09/14 08:59:34;;;;;;;;;;;;;;;;;;5087607;28;19912;-62
2022/09/14 09:01:59;;;;;;;;;;;;;;;;;;5069494;28;19958;-62
2022/09/14 09:04:24;;;;;;;;;;;;;;;;;;5087501;28;20360;-62
2022/09/14 09:06:49;;;;;;;;;;;;;;;;;;5088108;28;20466;-62
2022/09/14 09:09:14;;;;;;;;;;;;;;;;;;5087925;28;19920;-62
2022/09/14 09:11:40;;;;;;;;;;;;;;;;;;5086921;28;19938;-62
2022/09/14 09:14:05;;;;;;;;;;;;;;;;;;5087365;28;19980;-62
2022/09/14 09:16:30;;;;;;;;;;;;;;;;;;5088235;28;19959;-62
2022/09/14 09:18:55;;;;;;;;;;;;;;;;;;5087474;28;19916;-62
2022/09/14 09:21:20;;;;;;;;;;;;;;;;;;5087348;28;19913;-62
2022/09/14 09:23:45;;;;;;;;;;;;;;;;;;5087083;28;19947;-62
2022/09/14 09:26:11;;;;;;;;;;;;;;;;;;5087045;28;19916;-62
2022/09/14 09:28:36;;;;;;;;;;;;;;;;;;5087323;28;20339;-62
2022/09/14 09:31:03;;;;;;;;;;;;;;;;;;5087591;28;19924;-62
2022/09/14 09:33:43;;;;;;;;;;;;;;;;;;5085209;28;19924;-62
2022/09/14 09:36:16;;;;;;;;;;;;;;;;;;5085616;28;19920;-63
2022/09/14 09:38:42;;;;;;;;;;;;;;;;;;5083793;28;19997;-62
2022/09/14 09:41:07;;;;;;;;;;;;;;;;;;5086016;28;20284;-62
2022/09/14 09:43:33;;;;;;;;;;;;;;;;;;5086250;28;20246;-63
2022/09/14 09:45:58;;;;;;;;;;;;;;;;;;5086165;28;20018;-62
2022/09/14 09:48:23;;;;;;;;;;;;;;;;;;5086345;28;19927;-62
2022/09/14 09:50:48;;;;;;;;;;;;;;;;;;5085878;28;19943;-62
2022/09/14 09:53:13;;;;;;;;;;;;;;;;;;5085693;28;19916;-62
2022/09/14 09:55:39;;;;;;;;;;;;;;;;;;5085722;28;19916;-62
2022/09/14 09:58:04;;;;;;;;;;;;;;;;;;5067758;28;19912;-62
2022/09/14 10:00:29;;;;;;;;;;;;;;;;;;5086055;28;19912;-62
2022/09/14 10:02:54;;;;;;;;;;;;;;;;;;5079333;28;20003;-63
2022/09/14 10:05:19;;;;;;;;;;;;;;;;;;5084083;28;20572;-62
2022/09/14 10:07:45;;;;;;;;;;;;;;;;;;5084471;28;20383;-63
2022/09/14 10:10:10;;;;;;;;;;;;;;;;;;5083489;28;20288;-63
2022/09/14 10:12:35;;;;;;;;;;;;;;;;;;5084218;28;20288;-63
2022/09/14 10:15:00;;;;;;;;;;;;;;;;;;5085115;28;19920;-63
2022/09/14 10:17:25;;;;;;;;;;;;;;;;;;5085773;28;19977;-63
2022/09/14 10:19:51;;;;;;;;;;;;;;;;;;5085700;28;19912;-63
2022/09/14 10:22:16;;;;;;;;;;;;;;;;;;5085373;28;19981;-63
2022/09/14 10:24:41;;;;;;;;;;;;;;;;;;5085568;28;20021;-63
2022/09/14 10:27:06;;;;;;;;;;;;;;;;;;5085288;28;20292;-63
2022/09/14 10:29:34;;;;;;;;;;;;;;;;;;5086234;28;20307;-63
2022/09/14 10:31:59;;;;;;;;;;;;;;;;;;5086046;28;19920;-63
2022/09/14 10:34:24;;;;;;;;;;;;;;;;;;5067374;28;19923;-63
2022/09/14 10:36:50;;;;;;;;;;;;;;;;;;5086146;28;19912;-63
2022/09/14 10:39:15;;;;;;;;;;;;;;;;;;5067896;28;20299;-63
2022/09/14 10:41:40;;;;;;;;;;;;;;;;;;5085879;28;19922;-63
2022/09/14 10:44:06;;;;;;;;;;;;;;;;;;5085845;28;19919;-63
2022/09/14 10:46:31;;;;;;;;;;;;;;;;;;5086197;28;19931;-63
2022/09/14 10:48:56;;;;;;;;;;;;;;;;;;5085318;28;19927;-63
2022/09/14 10:51:22;;;;;;;;;;;;;;;;;;5085624;28;20029;-63
2022/09/14 10:53:47;;;;;;;;;;;;;;;;;;5085778;28;20364;-63
2022/09/14 10:56:12;;;;;;;;;;;;;;;;;;5084666;28;19927;-63
2022/09/14 10:58:38;;;;;;;;;;;;;;;;;;5085547;28;19919;-64
2022/09/14 11:01:04;;;;;;;;;;;;;;;;;;5085041;28;20586;-64
2022/09/14 11:03:29;;;;;;;;;;;;;;;;;;5068188;28;19919;-64
2022/09/14 11:05:54;;;;;;;;;;;;;;;;;;5084996;28;19916;-64
2022/09/14 11:08:19;;;;;;;;;;;;;;;;;;5084742;28;20695;-64
2022/09/14 11:10:44;;;;;;;;;;;;;;;;;;5083474;28;19920;-64
2022/09/14 11:13:10;;;;;;;;;;;;;;;;;;5084980;28;19927;-64
2022/09/14 11:15:35;;;;;;;;;;;;;;;;;;5085290;28;19923;-64
2022/09/14 11:18:00;;;;;;;;;;;;;;;;;;5084967;28;19947;-64
2022/09/14 11:20:25;;;;;;;;;;;;;;;;;;5085082;28;20523;-64
2022/09/14 11:22:50;;;;;;;;;;;;;;;;;;5084389;28;19932;-65
2022/09/14 11:25:16;;;;;;;;;;;;;;;;;;5085133;28;20014;-64
2022/09/14 11:27:41;;;;;;;;;;;;;;;;;;5084365;28;20359;-64
2022/09/14 11:30:06;;;;;;;;;;;;;;;;;;5085036;28;19981;-64
2022/09/14 11:32:31;;;;;;;;;;;;;;;;;;5068369;28;19936;-64
2022/09/14 11:34:56;;;;;;;;;;;;;;;;;;5068033;28;20383;-65
2022/09/14 11:37:22;;;;;;;;;;;;;;;;;;5085343;28;19972;-64
2022/09/14 11:39:47;;;;;;;;;;;;;;;;;;5085073;28;20023;-65
2022/09/14 11:42:12;;;;;;;;;;;;;;;;;;5084893;28;19961;-65
2022/09/14 11:44:37;;;;;;;;;;;;;;;;;;5084544;28;20365;-64
2022/09/14 11:47:02;;;;;;;;;;;;;;;;;;5084605;28;19942;-64
2022/09/14 11:49:28;;;;;;;;;;;;;;;;;;5085483;28;20034;-64
2022/09/14 11:51:53;;;;;;;;;;;;;;;;;;5084515;28;19969;-64
2022/09/14 11:54:18;;;;;;;;;;;;;;;;;;5084954;28;19916;-65
2022/09/14 11:56:43;;;;;;;;;;;;;;;;;;5084361;28;20022;-65
2022/09/14 11:59:08;;;;;;;;;;;;;;;;;;5084094;28;19920;-64
2022/09/14 12:01:37;;;;;;;;;;;;;;;;;;5084277;28;19992;-64
2022/09/14 12:04:02;;;;;;;;;;;;;;;;;;5084120;28;19998;-64
2022/09/14 12:06:27;;;;;;;;;;;;;;;;;;5083573;28;20006;-65
2022/09/14 12:08:52;;;;;;;;;;;;;;;;;;5084317;28;19970;-65
2022/09/14 12:11:17;;;;;;;;;;;;;;;;;;5084057;28;19932;-65
2022/09/14 12:13:43;;;;;;;;;;;;;;;;;;5084312;28;20318;-65
2022/09/14 12:16:08;;;;;;;;;;;;;;;;;;5084304;28;20203;-65
2022/09/14 12:18:33;;;;;;;;;;;;;;;;;;5084204;28;20027;-65
2022/09/14 12:20:59;;;;;;;;;;;;;;;;;;5082944;28;19916;-64
2022/09/14 12:23:24;;;;;;;;;;;;;;;;;;5083655;28;19923;-65
2022/09/14 12:25:49;;;;;;;;;;;;;;;;;;5084140;28;20385;-65
2022/09/14 12:28:15;;;;;;;;;;;;;;;;;;5083695;28;19921;-65
2022/09/14 12:30:40;;;;;;;;;;;;;;;;;;5084118;28;19920;-65
2022/09/14 12:33:05;;;;;;;;;;;;;;;;;;5083798;28;19916;-65
2022/09/14 12:35:30;;;;;;;;;;;;;;;;;;5084185;28;19929;-64
2022/09/14 12:37:55;;;;;;;;;;;;;;;;;;5084159;28;20416;-64
2022/09/14 12:40:21;;;;;;;;;;;;;;;;;;5083884;28;19935;-65
2022/09/14 12:42:47;;;;;;;;;;;;;;;;;;5084298;28;19927;-65
2022/09/14 12:45:12;;;;;;;;;;;;;;;;;;5084169;28;19920;-64
2022/09/14 12:47:37;;;;;;;;;;;;;;;;;;5084018;28;19920;-64
2022/09/14 12:50:02;;;;;;;;;;;;;;;;;;5067947;28;20436;-64
2022/09/14 12:52:27;;;;;;;;;;;;;;;;;;5065635;28;20353;-65
2022/09/14 12:54:53;;;;;;;;;;;;;;;;;;5080770;28;19919;-65
2022/09/14 12:57:18;;;;;;;;;;;;;;;;;;5083471;28;19923;-65
2022/09/14 12:59:43;;;;;;;;;;;;;;;;;;5082578;28;19916;-65
2022/09/14 13:02:08;;;;;;;;;;;;;;;;;;5082470;28;19924;-65
2022/09/14 13:04:34;;;;;;;;;;;;;;;;;;5065574;28;19959;-65
2022/09/14 13:06:59;;;;;;;;;;;;;;;;;;5065659;28;20000;-65
2022/09/14 13:09:24;;;;;;;;;;;;;;;;;;5083498;28;19920;-65
2022/09/14 13:11:49;;;;;;;;;;;;;;;;;;5083860;28;20254;-65
2022/09/14 13:14:14;;;;;;;;;;;;;;;;;;5085511;28;19916;-64
2022/09/14 13:16:40;;;;;;;;;;;;;;;;;;5087838;28;19924;-64
2022/09/14 13:19:05;;;;;;;;;;;;;;;;;;5086858;28;19919;-65
2022/09/14 13:21:30;;;;;;;;;;;;;;;;;;5086799;28;19968;-64
2022/09/14 13:23:56;;;;;;;;;;;;;;;;;;5086890;28;19993;-63
2022/09/14 13:26:21;;;;;;;;;;;;;;;;;;5086737;28;20043;-58
2022/09/14 13:28:46;;;;;;;;;;;;;;;;;;5087711;28;19920;-59
2022/09/14 13:31:11;;;;;;;;;;;;;;;;;;5087169;28;19965;-60
2022/09/14 13:33:36;;;;;;;;;;;;;;;;;;5087495;28;19916;-59
2022/09/14 13:36:02;;;;;;;;;;;;;;;;;;5086908;28;19920;-59
2022/09/14 13:38:27;;;;;;;;;;;;;;;;;;5086968;28;19916;-59
2022/09/14 13:40:52;;;;;;;;;;;;;;;;;;5087585;28;19969;-59
2022/09/14 13:43:17;;;;;;;;;;;;;;;;;;5087021;28;19969;-58
2022/09/14 13:45:42;;;;;;;;;;;;;;;;;;5086845;28;19965;-58
2022/09/14 13:48:08;;;;;;;;;;;;;;;;;;5087275;28;19920;-58
2022/09/14 13:50:33;;;;;;;;;;;;;;;;;;5087030;28;19920;-58
2022/09/14 13:52:58;;;;;;;;;;;;;;;;;;5086585;28;19916;-58
2022/09/14 13:55:23;;;;;;;;;;;;;;;;;;5087070;28;19916;-59
2022/09/14 13:57:48;;;;;;;;;;;;;;;;;;5086367;28;19916;-59
2022/09/14 14:00:17;;;;;;;;;;;;;;;;;;5086736;28;19916;-59
2022/09/14 14:02:42;;;;;;;;;;;;;;;;;;5086647;28;19926;-59
2022/09/14 14:05:07;;;;;;;;;;;;;;;;;;5087125;28;19916;-60
2022/09/14 14:07:32;;;;;;;;;;;;;;;;;;5086378;28;19924;-60
2022/09/14 14:09:58;;;;;;;;;;;;;;;;;;5085678;28;19923;-60
2022/09/14 14:12:23;;;;;;;;;;;;;;;;;;5086616;28;20060;-59
2022/09/14 14:14:49;;;;;;;;;;;;;;;;;;5086941;28;19920;-61
2022/09/14 14:17:14;;;;;;;;;;;;;;;;;;5086539;28;19916;-59
2022/09/14 14:19:39;;;;;;;;;;;;;;;;;;5087309;28;19926;-59
2022/09/14 14:22:04;;;;;;;;;;;;;;;;;;5085630;28;19918;-59
2022/09/14 14:24:30;;;;;;;;;;;;;;;;;;5070415;28;19916;-59
2022/09/14 14:26:55;;;;;;;;;;;;;;;;;;5083737;28;20301;-60
2022/09/14 14:29:20;;;;;;;;;;;;;;;;;;5084917;28;20010;-59
2022/09/14 14:31:45;;;;;;;;;;;;;;;;;;5085389;28;19981;-59
2022/09/14 14:34:11;;;;;;;;;;;;;;;;;;5084828;28;19945;-60
2022/09/14 14:36:36;;;;;;;;;;;;;;;;;;5071113;28;20684;-59
2022/09/14 14:39:01;;;;;;;;;;;;;;;;;;5085510;28;19922;-58
2022/09/14 14:41:26;;;;;;;;;;;;;;;;;;5084866;28;19923;-59
2022/09/14 14:43:51;;;;;;;;;;;;;;;;;;5067794;28;19916;-59
2022/09/14 14:46:17;;;;;;;;;;;;;;;;;;5086086;28;19924;-59
2022/09/14 14:48:42;;;;;;;;;;;;;;;;;;5085115;28;20373;-60
2022/09/14 14:51:07;;;;;;;;;;;;;;;;;;5085894;28;19920;-60
2022/09/14 14:53:32;;;;;;;;;;;;;;;;;;5085684;28;20407;-60
2022/09/14 14:55:57;;;;;;;;;;;;;;;;;;5085711;28;19912;-60
2022/09/14 14:58:23;;;;;;;;;;;;;;;;;;5086072;28;19974;-60
2022/09/14 15:00:48;;;;;;;;;;;;;;;;;;5085509;28;19916;-60
2022/09/14 15:03:14;;;;;;;;;;;;;;;;;;5085067;28;19932;-60
2022/09/14 15:05:39;;;;;;;;;;;;;;;;;;5085040;28;20328;-59
2022/09/14 15:08:04;;;;;;;;;;;;;;;;;;5085825;28;19946;-59
2022/09/14 15:10:30;;;;;;;;;;;;;;;;;;5085441;28;20007;-59
2022/09/14 15:12:55;;;;;;;;;;;;;;;;;;5085301;28;20303;-60
2022/09/14 15:15:20;;;;;;;;;;;;;;;;;;5085393;28;20733;-60
2022/09/14 15:17:45;;;;;;;;;;;;;;;;;;5085705;28;20283;-61
2022/09/14 15:20:10;;;;;;;;;;;;;;;;;;5054645;28;20300;-61
2022/09/14 15:22:36;;;;;;;;;;;;;;;;;;5085498;28;19916;-61
2022/09/14 15:25:01;;;;;;;;;;;;;;;;;;5066746;28;19970;-61
2022/09/14 15:27:26;;;;;;;;;;;;;;;;;;5085036;28;20281;-61
2022/09/14 15:29:51;;;;;;;;;;;;;;;;;;5084892;28;19923;-61
2022/09/14 15:32:17;;;;;;;;;;;;;;;;;;5084736;28;19943;-61
2022/09/14 15:34:42;;;;;;;;;;;;;;;;;;5084853;28;20618;-61
2022/09/14 15:37:08;;;;;;;;;;;;;;;;;;5083529;28;19969;-61
2022/09/14 15:39:33;;;;;;;;;;;;;;;;;;5082118;28;19955;-62
2022/09/14 15:41:58;;;;;;;;;;;;;;;;;;5084435;28;19916;-61
2022/09/14 15:44:23;;;;;;;;;;;;;;;;;;5086283;28;20313;-61
2022/09/14 15:46:48;;;;;;;;;;;;;;;;;;5086505;28;19922;-61
2022/09/14 15:49:13;;;;;;;;;;;;;;;;;;5086527;28;19920;-61
2022/09/14 15:51:39;;;;;;;;;;;;;;;;;;5086923;28;19973;-61
2022/09/14 15:54:04;;;;;;;;;;;;;;;;;;5086697;28;19908;-62
2022/09/14 15:56:29;;;;;;;;;;;;;;;;;;5087233;28;19923;-62
2022/09/14 15:58:55;;;;;;;;;;;;;;;;;;5087243;28;19976;-59
2022/09/14 16:01:20;;;;;;;;;;;;;;;;;;5086660;28;19916;-62
2022/09/14 16:03:45;;;;;;;;;;;;;;;;;;5079617;28;20319;-62
2022/09/14 16:06:10;;;;;;;;;;;;;;;;;;5086832;28;19918;-62
2022/09/14 16:08:35;;;;;;;;;;;;;;;;;;5086904;28;20356;-62
2022/09/14 16:11:00;;;;;;;;;;;;;;;;;;5082259;28;19919;-62
2022/09/14 16:13:26;;;;;;;;;;;;;;;;;;5083961;28;19920;-60
2022/09/14 16:15:52;;;;;;;;;;;;;;;;;;5083643;28;20014;-62
2022/09/14 16:18:17;;;;;;;;;;;;;;;;;;5084956;28;19924;-61
2022/09/14 16:20:42;;;;;;;;;;;;;;;;;;5086181;28;19916;-61
2022/09/14 16:23:08;;;;;;;;;;;;;;;;;;5067962;28;19939;-61
2022/09/14 16:25:33;;;;;;;;;;;;;;;;;;5079436;28;19920;-60
2022/09/14 16:27:58;;;;;;;;;;;;;;;;;;5082674;28;19924;-60
2022/09/14 16:30:23;;;;;;;;;;;;;;;;;;5081659;28;19969;-61
2022/09/14 16:32:48;;;;;;;;;;;;;;;;;;5082646;28;19927;-61